Cowbridge, United Kingdom
Current Conditions -  °F | °C
As of 4:50 PM on Thursday 23 Oct 2014 (Local Time) from EGDX Reporting Station
Broken Clouds Broken Clouds  
Wind Chill: 59°   Ceiling: 2200
Heat Index: 59°   Visibility: 6mi
Dew Point: 55°   Wind: 13mph
Humidity: 88%   Direction: 250°WSW
Pressure: 30"   Gusts: NA
Location:  51.46°N, 3.44°W
Report Text: EGDX 231550Z AUTO 25011KT 9999 FEW019/// BKN022/// 15/13 Q1016 RERA
Loading
Personal Weather Stations






























Interactive Weather Map
Tropical Storm Tracking
New forecast layout! Learn more

10-Day Weather Forecast

Advertisements
Track Severe Weather on mobile